Aeroporto :
LOGIN :

Iscrizione | Disclaimer

   EN    FR    IT 

 










Sommario :    VFR   VFR Marginale   IFR   IFR Intensivo   IFR Molto Intensivo
Visibilità : 
Base nubi : 
>= 8 km
>= 3000ft
5 / 8 km
1000 / 3000 ft
1500m / 5 km
500 / 1000 ft
800 / 1500m
200 / 500 ft
< 800m
< 200 ft
Simboli :   Temporali  Nebbia  Neve Forte  Precipitazioni Forti  Vento > 20 kt
SIGMETs :   Varie  Temporali  Ghiacco  Turbolenza  Onda orograficha  Ceneri Vulcaniche






- Altitudine del aeroporto : 529 ft
- Codice IATA : CHR


LFLX - Chateauroux

ULTIMO METAR :
  • 171730Z AUTO 03004KT 9999 OVC030 05/03 Q1009 NOSIG

METARs OBSOLETI :
  • 171700Z AUTO 04004KT 9999 OVC028 06/03 Q1009 NOSIG
  • 171630Z AUTO 03006KT 9999 OVC026 06/02 Q1009 NOSIG
  • 171600Z AUTO 00000KT 9999 OVC026 06/02 Q1009 NOSIG
  • 171530Z AUTO 05001KT 9999 OVC030 06/01 Q1009 NOSIG
  • 171500Z AUTO 33001KT 9999 OVC030 06/01 Q1009 NOSIG

TAF TAF LFLX
Valido dal 17 a 18 ore il 19 a 00 ore UTC


171700Z 1718/1824 36004KT 9999 BKN020
TEMPO 1800/1808 4000 BR BKN003
PROB30
TEMPO 1800/1806 0800 FG VV///
TEMPO 1808/1811 BKN008
BECMG 1812/1814 27010KT
PROB40
TEMPO 1817/1824 4000 -RA BKN006



MetMap, La meteo Aeronautica in un colpo d'occhio ! - Copyright ORBIFLY Dicembre 2007 - Disclaimer

ORBIFLY MET'MAP TEAM :

Programmazione e sviluppo : Alexandra Zaïnal
Concezione e sviluppo : Baudouin d'Aumeries
Co-Programmazione e sviluppo : Marc-Olivier Méhu
Supporto tecnico e logistico : Manuel Goepfert
Aiuto per la traduzione : Arnaldo La Scala

Contatto : metmap@orbifly.com




FONTI E CREDITI :

   NOAA